createdAt,value
2022-12-17T00:00:27.453Z,37.25
2022-12-17T00:03:17.681Z,35.75
2022-12-17T00:06:03.321Z,36.17
2022-12-17T00:08:52.013Z,35.15
2022-12-17T00:11:37.726Z,34.45
2022-12-17T00:14:24.405Z,33.30
2022-12-17T00:17:09.956Z,33.78
2022-12-17T00:19:56.347Z,34.30
2022-12-17T00:22:42.325Z,33.17
2022-12-17T00:25:28.090Z,31.73
2022-12-17T00:28:13.434Z,32.17
2022-12-17T00:30:59.089Z,33.63
2022-12-17T00:33:44.817Z,31.88
2022-12-17T00:36:30.207Z,33.92
2022-12-17T00:39:17.792Z,32.53
2022-12-17T00:42:04.084Z,31.25
2022-12-17T00:44:49.577Z,31.58
2022-12-17T00:47:34.874Z,30.27
2022-12-17T00:50:20.153Z,31.80
2022-12-17T00:53:06.641Z,30.80
2022-12-17T00:55:51.992Z,32.03
2022-12-17T00:58:37.499Z,31.27
2022-12-17T01:01:23.256Z,31.85
2022-12-17T01:04:08.748Z,32.33
2022-12-17T01:06:54.229Z,31.35
2022-12-17T01:09:42.509Z,31.50
2022-12-17T01:12:28.364Z,31.13
2022-12-17T01:15:14.151Z,31.27
2022-12-17T01:17:59.597Z,31.17
2022-12-17T01:20:45.052Z,31.23
2022-12-17T01:23:30.422Z,37.00
2022-12-17T01:26:17.013Z,29.85
2022-12-17T01:29:02.525Z,31.42
2022-12-17T01:31:47.938Z,30.05
2022-12-17T01:34:35.372Z,29.00
2022-12-17T01:37:22.374Z,29.33
2022-12-17T01:40:08.926Z,30.65
2022-12-17T01:42:59.617Z,30.15
2022-12-17T01:45:52.430Z,27.92
2022-12-17T01:48:46.451Z,28.63
2022-12-17T01:51:33.934Z,28.40
2022-12-17T01:54:20.874Z,28.15
2022-12-17T01:57:06.872Z,27.85
2022-12-17T02:00:14.180Z,27.38
2022-12-17T02:03:02.122Z,28.33
2022-12-17T02:06:47.032Z,28.17
2022-12-17T02:09:46.815Z,26.73
2022-12-17T02:12:50.975Z,27.45
2022-12-17T02:15:41.401Z,26.45
2022-12-17T02:18:38.322Z,26.23
2022-12-17T02:21:26.136Z,27.58
2022-12-17T02:24:49.815Z,27.17
2022-12-17T02:27:36.890Z,27.23
2022-12-17T02:30:25.852Z,26.60
2022-12-17T02:33:12.749Z,26.98
2022-12-17T02:36:09.764Z,27.17
2022-12-17T02:38:58.052Z,28.40
2022-12-17T02:41:59.861Z,27.55
2022-12-17T02:44:59.236Z,28.38
2022-12-17T02:47:47.193Z,27.77
2022-12-17T02:50:33.601Z,29.02
2022-12-17T02:53:20.979Z,27.92
2022-12-17T02:56:08.420Z,30.00
2022-12-17T02:58:56.287Z,30.00
2022-12-17T03:01:41.952Z,29.52
2022-12-17T03:04:27.240Z,30.25
2022-12-17T03:07:12.876Z,30.13
2022-12-17T03:10:01.151Z,28.77
2022-12-17T03:12:48.147Z,29.35
2022-12-17T03:15:34.951Z,28.85
2022-12-17T03:18:20.412Z,28.08
2022-12-17T03:21:05.618Z,28.92
2022-12-17T03:23:52.011Z,30.70
2022-12-17T03:26:37.175Z,29.65
2022-12-17T03:29:22.656Z,30.73
2022-12-17T03:32:07.917Z,29.45
2022-12-17T03:34:53.173Z,30.05
2022-12-17T03:37:38.876Z,30.35
2022-12-17T03:40:26.951Z,29.85
2022-12-17T03:43:13.420Z,30.65
2022-12-17T03:45:58.852Z,31.35
2022-12-17T03:48:45.705Z,30.35
2022-12-17T03:51:31.085Z,30.35
2022-12-17T03:54:16.520Z,30.42
2022-12-17T03:57:02.190Z,28.75
2022-12-17T03:59:47.753Z,28.67
2022-12-17T04:02:33.338Z,29.23
2022-12-17T04:05:20.678Z,29.42
2022-12-17T04:08:06.575Z,29.42
2022-12-17T04:10:52.815Z,28.90
2022-12-17T04:13:41.302Z,31.13
2022-12-17T04:16:28.292Z,28.23
2022-12-17T04:19:15.708Z,28.98
2022-12-17T04:22:01.998Z,28.33
2022-12-17T04:24:47.496Z,28.33
2022-12-17T04:27:32.866Z,28.58
2022-12-17T04:30:18.216Z,29.30
2022-12-17T04:33:03.552Z,27.63
2022-12-17T04:35:48.806Z,28.25
2022-12-17T04:38:34.168Z,28.85
2022-12-17T04:41:20.464Z,29.13
2022-12-17T04:44:05.831Z,27.98
2022-12-17T04:46:54.917Z,27.95
2022-12-17T04:49:40.315Z,28.80
2022-12-17T04:52:25.871Z,28.75
2022-12-17T04:55:11.345Z,27.77
2022-12-17T04:57:56.665Z,30.95
2022-12-17T05:00:42.341Z,29.38
2022-12-17T05:03:34.245Z,30.05
2022-12-17T05:06:21.379Z,27.63
2022-12-17T05:09:07.839Z,29.33
2022-12-17T05:11:53.130Z,28.58
2022-12-17T05:14:39.436Z,29.23
2022-12-17T05:17:25.295Z,27.70
2022-12-17T05:20:10.705Z,28.15
2022-12-17T05:22:56.162Z,28.38
2022-12-17T05:25:41.552Z,28.65
2022-12-17T05:28:26.748Z,29.52
2022-12-17T05:31:13.999Z,28.85
2022-12-17T05:34:00.816Z,28.23
2022-12-17T05:36:47.271Z,29.77
2022-12-17T05:39:52.830Z,30.00
2022-12-17T05:42:38.398Z,28.80
2022-12-17T05:45:24.291Z,28.88
2022-12-17T05:48:09.861Z,29.13
2022-12-17T05:50:57.330Z,29.45
2022-12-17T05:53:42.694Z,29.42
2022-12-17T05:56:27.950Z,30.00
2022-12-17T05:59:13.440Z,29.50
2022-12-17T06:01:58.822Z,30.48
2022-12-17T06:04:44.240Z,30.08
2022-12-17T06:07:29.795Z,29.40
2022-12-17T06:10:15.111Z,28.90
2022-12-17T06:13:02.646Z,28.90
2022-12-17T06:15:47.924Z,28.45
2022-12-17T06:18:33.583Z,30.30
2022-12-17T06:21:20.819Z,30.05
2022-12-17T06:24:07.232Z,28.95
2022-12-17T06:26:54.685Z,29.45
2022-12-17T06:29:39.908Z,29.27
2022-12-17T06:32:25.511Z,29.95
2022-12-17T06:35:10.820Z,29.70
2022-12-17T06:37:57.188Z,28.88
2022-12-17T06:40:43.825Z,28.85
2022-12-17T06:43:29.191Z,28.50
2022-12-17T06:46:14.680Z,27.85
2022-12-17T06:49:00.096Z,28.02
2022-12-17T06:51:45.267Z,29.05
2022-12-17T06:54:30.574Z,29.42
2022-12-17T06:57:15.917Z,28.35
2022-12-17T07:00:03.641Z,29.27
2022-12-17T07:02:49.031Z,29.50
2022-12-17T07:05:35.542Z,30.13
2022-12-17T07:08:20.881Z,29.55
2022-12-17T07:11:06.219Z,29.55
2022-12-17T07:13:52.574Z,31.85
2022-12-17T07:16:38.104Z,30.80
2022-12-17T07:19:27.432Z,30.48
2022-12-17T07:22:14.104Z,29.50
2022-12-17T07:24:59.555Z,28.45
2022-12-17T07:27:45.949Z,29.15
2022-12-17T07:30:31.738Z,28.52
2022-12-17T07:33:20.191Z,29.15
2022-12-17T07:36:05.455Z,27.83
2022-12-17T07:38:51.485Z,28.42
2022-12-17T07:41:37.343Z,30.05
2022-12-17T07:44:24.433Z,28.80
2022-12-17T07:47:10.881Z,29.60
2022-12-17T07:49:56.738Z,29.38
2022-12-17T07:52:42.484Z,28.95
2022-12-17T07:55:28.012Z,28.77
2022-12-17T07:58:21.528Z,30.08
2022-12-17T08:01:08.265Z,30.35
2022-12-17T08:03:53.639Z,30.10
2022-12-17T08:06:39.648Z,30.70
2022-12-17T08:09:25.219Z,32.30
2022-12-17T08:12:11.672Z,30.55
2022-12-17T08:14:56.942Z,32.80
2022-12-17T08:17:42.375Z,31.38
2022-12-17T08:20:29.799Z,33.38
2022-12-17T08:23:25.129Z,33.20
2022-12-17T08:26:10.616Z,32.22
2022-12-17T08:28:56.187Z,33.22
2022-12-17T08:31:43.711Z,32.03
2022-12-17T08:34:29.199Z,33.50
2022-12-17T08:37:14.673Z,33.38
2022-12-17T08:40:02.992Z,34.08
2022-12-17T08:42:48.479Z,29.67
2022-12-17T08:45:34.004Z,33.70
2022-12-17T08:48:25.940Z,31.92
2022-12-17T08:51:13.278Z,25.92
2022-12-17T08:54:02.231Z,33.35
2022-12-17T08:56:47.562Z,32.20
2022-12-17T08:59:38.009Z,34.22
2022-12-17T09:02:23.907Z,33.42
2022-12-17T09:05:09.530Z,32.53
2022-12-17T09:08:07.093Z,35.85
2022-12-17T09:10:52.711Z,33.35
2022-12-17T09:13:38.603Z,32.97
2022-12-17T09:16:24.743Z,33.92
2022-12-17T09:19:10.484Z,32.30
2022-12-17T09:21:56.674Z,33.35
2022-12-17T09:24:42.660Z,33.47
2022-12-17T09:27:27.974Z,33.90
2022-12-17T09:30:13.733Z,33.03
2022-12-17T09:32:59.716Z,32.70
2022-12-17T09:35:46.070Z,32.75
2022-12-17T09:38:37.618Z,34.28
2022-12-17T09:41:46.680Z,34.50
2022-12-17T09:44:45.718Z,33.00
2022-12-17T09:47:53.502Z,32.05
2022-12-17T09:50:39.764Z,32.35
2022-12-17T09:53:58.300Z,33.90
2022-12-17T09:56:49.340Z,32.15
2022-12-17T09:59:45.460Z,35.45
2022-12-17T10:03:00.669Z,34.60
2022-12-17T10:05:49.475Z,32.38
2022-12-17T10:08:39.199Z,32.72
2022-12-17T10:11:42.759Z,31.50
2022-12-17T10:14:35.849Z,30.70
2022-12-17T10:17:25.739Z,30.60
2022-12-17T10:20:15.134Z,32.85
2022-12-17T10:23:07.469Z,32.13
2022-12-17T10:25:54.636Z,33.15
2022-12-17T10:28:44.130Z,32.55
2022-12-17T10:31:40.887Z,30.33
2022-12-17T10:34:33.307Z,31.70
2022-12-17T10:37:20.700Z,32.58
2022-12-17T10:40:19.899Z,31.90
2022-12-17T10:43:07.628Z,30.50
2022-12-17T10:45:55.212Z,30.77
2022-12-17T10:48:46.455Z,31.20
2022-12-17T10:51:49.984Z,31.15
2022-12-17T10:54:50.424Z,27.52
2022-12-17T10:57:56.044Z,28.67
2022-12-17T11:00:52.629Z,29.30
2022-12-17T11:03:43.861Z,29.35
2022-12-17T11:06:40.472Z,28.58
2022-12-17T11:09:37.104Z,28.88
2022-12-17T11:12:30.811Z,27.00
2022-12-17T11:15:23.461Z,29.10
2022-12-17T11:18:11.590Z,28.20
2022-12-17T11:21:24.304Z,28.77
2022-12-17T11:24:11.785Z,28.30
2022-12-17T11:27:00.799Z,29.77
2022-12-17T11:29:47.609Z,29.70
2022-12-17T11:32:50.698Z,28.92
2022-12-17T11:36:04.715Z,27.20
2022-12-17T11:38:56.973Z,26.67
2022-12-17T11:42:01.232Z,29.48
2022-12-17T11:45:18.014Z,27.02
2022-12-17T11:48:19.818Z,27.02
2022-12-17T11:51:21.769Z,26.20
2022-12-17T11:54:40.726Z,27.75
2022-12-17T11:57:41.761Z,27.67
2022-12-17T12:00:42.390Z,28.85
2022-12-17T12:03:54.762Z,27.75
2022-12-17T12:06:52.512Z,28.98
2022-12-17T12:09:52.220Z,28.15
2022-12-17T12:13:02.500Z,27.00
2022-12-17T12:15:59.520Z,27.13
2022-12-17T12:19:17.746Z,27.63
2022-12-17T12:22:19.009Z,27.58
2022-12-17T12:25:31.281Z,27.42
2022-12-17T12:28:32.512Z,27.52
2022-12-17T12:31:28.912Z,28.02
2022-12-17T12:34:24.836Z,27.52
2022-12-17T12:37:11.602Z,28.73
2022-12-17T12:40:15.167Z,27.42
2022-12-17T12:43:19.335Z,26.33
2022-12-17T12:46:14.543Z,26.02
2022-12-17T12:49:22.838Z,26.38
2022-12-17T12:52:10.894Z,25.67
2022-12-17T12:55:05.792Z,27.35
2022-12-17T12:58:02.432Z,27.10
2022-12-17T13:00:52.704Z,26.10
2022-12-17T13:03:45.964Z,27.23
2022-12-17T13:06:33.888Z,24.58
2022-12-17T13:09:21.741Z,26.48
2022-12-17T13:12:00.683Z,26.50
2022-12-17T13:14:36.439Z,28.15
2022-12-17T13:17:34.656Z,26.30
2022-12-17T13:20:23.505Z,26.50
2022-12-17T13:23:04.892Z,25.77
2022-12-17T13:25:34.091Z,27.33
2022-12-17T13:28:00.949Z,26.85
2022-12-17T13:30:37.757Z,26.50
2022-12-17T13:33:32.748Z,26.33
2022-12-17T13:36:19.105Z,27.70
2022-12-17T13:38:57.035Z,28.52
2022-12-17T13:41:43.073Z,28.30
2022-12-17T13:44:31.575Z,26.70
2022-12-17T13:46:58.743Z,26.58
2022-12-17T13:49:28.165Z,27.02
2022-12-17T13:52:20.583Z,28.00
2022-12-17T13:54:47.658Z,26.30
2022-12-17T13:57:17.379Z,26.02
2022-12-17T14:00:02.442Z,27.70
2022-12-17T14:02:42.458Z,26.70
2022-12-17T14:05:26.763Z,27.45
2022-12-17T14:07:55.192Z,26.88
2022-12-17T14:10:22.315Z,26.88
2022-12-17T14:12:50.042Z,26.98
2022-12-17T14:15:29.974Z,25.88
2022-12-17T14:17:58.907Z,25.90
2022-12-17T14:20:28.800Z,27.25
2022-12-17T14:23:02.677Z,24.98
2022-12-17T14:25:36.353Z,25.80
2022-12-17T14:28:07.006Z,26.05
2022-12-17T14:30:56.350Z,26.60
2022-12-17T14:33:30.760Z,26.15
2022-12-17T14:36:05.209Z,27.65
2022-12-17T14:38:48.337Z,24.55
2022-12-17T14:41:35.273Z,25.70
2022-12-17T14:44:04.926Z,28.38
2022-12-17T14:46:34.134Z,26.35
2022-12-17T14:49:05.901Z,26.88
2022-12-17T14:51:38.555Z,25.40
2022-12-17T14:56:33.359Z,27.40
2022-12-17T14:59:00.367Z,28.10
2022-12-17T15:01:27.528Z,29.27
2022-12-17T15:03:57.335Z,32.03
2022-12-17T15:06:28.433Z,33.47
2022-12-17T15:08:58.975Z,34.13
2022-12-17T15:11:25.972Z,32.03
2022-12-17T15:13:57.003Z,35.75
2022-12-17T15:16:29.169Z,36.63
2022-12-17T15:18:57.677Z,36.40
2022-12-17T15:21:26.893Z,35.60
2022-12-17T15:23:54.153Z,36.92
2022-12-17T15:26:21.391Z,37.97
2022-12-17T15:28:49.643Z,38.65
2022-12-17T15:31:24.457Z,38.00
2022-12-17T15:33:53.809Z,38.45
2022-12-17T15:36:20.693Z,39.80
2022-12-17T15:38:49.056Z,39.30
2022-12-17T15:41:37.116Z,40.97
2022-12-17T15:44:06.023Z,40.75
2022-12-17T15:46:43.577Z,41.85
2022-12-17T15:49:16.531Z,40.92
2022-12-17T15:51:45.292Z,41.22
2022-12-17T15:54:14.235Z,43.17
2022-12-17T15:56:43.398Z,45.08
2022-12-17T15:59:10.629Z,44.78
2022-12-17T16:01:38.750Z,43.40
2022-12-17T16:04:10.419Z,44.00
2022-12-17T16:06:41.117Z,43.85
2022-12-17T16:09:08.326Z,42.10
2022-12-17T16:11:38.743Z,43.50
2022-12-17T16:14:07.305Z,42.28
2022-12-17T16:16:34.826Z,43.13
2022-12-17T16:19:02.781Z,41.78
2022-12-17T16:21:30.740Z,47.13
2022-12-17T16:23:57.985Z,43.35
2022-12-17T16:26:27.129Z,43.13
2022-12-17T16:28:53.980Z,45.88
2022-12-17T16:31:22.254Z,41.90
2022-12-17T16:33:49.746Z,41.13
2022-12-17T16:36:19.526Z,43.00
2022-12-17T16:38:49.314Z,43.38
2022-12-17T16:41:17.179Z,41.38
2022-12-17T16:43:44.645Z,40.20
2022-12-17T16:46:46.263Z,41.05
2022-12-17T16:49:19.326Z,40.03
2022-12-17T16:51:48.394Z,38.08
2022-12-17T16:54:21.963Z,38.42
2022-12-17T16:56:50.559Z,38.88
2022-12-17T16:59:18.431Z,37.15
2022-12-17T17:01:48.099Z,36.83
2022-12-17T17:04:16.792Z,38.15
2022-12-17T17:06:47.577Z,37.75
2022-12-17T17:09:15.925Z,37.47
2022-12-17T17:11:46.987Z,37.95
2022-12-17T17:14:18.470Z,36.92
2022-12-17T17:16:45.948Z,38.30
2022-12-17T17:19:12.808Z,38.75
2022-12-17T17:21:47.543Z,37.65
2022-12-17T17:24:21.120Z,37.55
2022-12-17T17:29:15.382Z,36.40
2022-12-17T17:34:34.087Z,37.65
2022-12-17T17:37:01.244Z,38.50
2022-12-17T17:39:31.833Z,38.95
2022-12-17T17:42:01.831Z,37.95
2022-12-17T17:44:29.863Z,41.80
2022-12-17T17:46:57.527Z,45.70
2022-12-17T17:49:25.113Z,40.80
2022-12-17T17:54:39.875Z,39.50
2022-12-17T17:57:07.396Z,40.08
2022-12-17T17:59:34.762Z,38.85
2022-12-17T18:02:03.645Z,40.35
2022-12-17T18:04:31.906Z,36.60
2022-12-17T18:09:47.072Z,38.65
2022-12-17T18:12:32.838Z,36.72
2022-12-17T18:15:18.596Z,35.47
2022-12-17T18:17:51.455Z,37.33
2022-12-17T18:22:46.612Z,35.28
2022-12-17T18:25:16.683Z,38.05
2022-12-17T18:27:44.152Z,40.40
2022-12-17T18:30:16.616Z,39.60
2022-12-17T18:32:44.984Z,41.75
2022-12-17T18:35:13.332Z,42.05
2022-12-17T18:37:40.808Z,43.00
2022-12-17T18:40:09.452Z,45.72
2022-12-17T18:42:54.917Z,43.28
2022-12-17T18:45:22.341Z,42.08
2022-12-17T18:47:51.354Z,40.20
2022-12-17T18:50:21.049Z,37.97
2022-12-17T18:52:48.021Z,38.88
2022-12-17T18:55:15.119Z,40.47
2022-12-17T18:57:48.257Z,38.58
2022-12-17T19:00:15.342Z,40.78
2022-12-17T19:02:44.266Z,40.53
2022-12-17T19:05:12.154Z,40.78
2022-12-17T19:07:40.052Z,39.72
2022-12-17T19:10:07.814Z,37.75
2022-12-17T19:12:35.117Z,36.67
2022-12-17T19:15:02.084Z,37.42
2022-12-17T19:17:28.904Z,37.17
2022-12-17T19:19:58.518Z,34.83
2022-12-17T19:22:29.707Z,34.90
2022-12-17T19:24:57.173Z,34.08
2022-12-17T19:27:24.615Z,37.17
2022-12-17T19:29:54.979Z,37.80
2022-12-17T19:32:24.844Z,37.22
2022-12-17T19:34:51.960Z,36.47
2022-12-17T19:37:20.695Z,36.67
2022-12-17T19:39:50.674Z,39.95
2022-12-17T19:42:44.536Z,38.53
2022-12-17T19:45:11.894Z,37.13
2022-12-17T19:47:40.640Z,35.92
2022-12-17T19:50:08.255Z,32.97
2022-12-17T19:52:36.201Z,34.42
2022-12-17T19:55:04.703Z,36.70
2022-12-17T19:57:35.013Z,34.17
2022-12-17T20:00:04.545Z,33.38
2022-12-17T20:02:42.767Z,34.08
2022-12-17T20:05:10.101Z,34.53
2022-12-17T20:07:40.232Z,36.40
2022-12-17T20:10:11.902Z,36.78
2022-12-17T20:12:44.846Z,37.05
2022-12-17T20:15:11.867Z,35.67
2022-12-17T20:17:39.787Z,35.60
2022-12-17T20:20:08.434Z,34.53
2022-12-17T20:22:35.495Z,35.53
2022-12-17T20:25:08.865Z,35.97
2022-12-17T20:27:37.392Z,35.50
2022-12-17T20:30:05.817Z,34.72
2022-12-17T20:32:33.764Z,34.55
2022-12-17T20:35:02.828Z,34.03
2022-12-17T20:37:29.936Z,33.97
2022-12-17T20:39:57.808Z,37.55
2022-12-17T20:42:26.795Z,42.72
2022-12-17T20:44:55.856Z,39.10
2022-12-17T20:47:23.031Z,36.40
2022-12-17T20:49:49.958Z,39.17
2022-12-17T20:52:17.141Z,37.95
2022-12-17T20:54:44.144Z,37.20
2022-12-17T20:57:13.585Z,38.13
2022-12-17T20:59:41.509Z,38.03
2022-12-17T21:02:13.164Z,37.83
2022-12-17T21:04:41.706Z,37.80
2022-12-17T21:07:09.650Z,35.72
2022-12-17T21:09:38.311Z,36.75
2022-12-17T21:12:06.025Z,35.53
2022-12-17T21:14:35.989Z,35.60
2022-12-17T21:17:03.236Z,34.70
2022-12-17T21:19:32.389Z,34.97
2022-12-17T21:22:00.375Z,35.50
2022-12-17T21:24:29.376Z,35.53
2022-12-17T21:26:59.648Z,33.75
2022-12-17T21:29:28.342Z,35.28
2022-12-17T21:31:56.471Z,34.67
2022-12-17T21:34:26.030Z,36.95
2022-12-17T21:36:54.647Z,35.70
2022-12-17T21:39:22.636Z,34.72
2022-12-17T21:42:12.042Z,36.03
2022-12-17T21:44:39.008Z,33.85
2022-12-17T21:47:06.467Z,34.75
2022-12-17T21:49:33.532Z,34.47
2022-12-17T21:52:01.618Z,34.05
2022-12-17T21:54:29.752Z,33.70
2022-12-17T21:57:00.242Z,33.85
2022-12-17T21:59:43.449Z,34.83
2022-12-17T22:05:17.721Z,33.72
2022-12-17T22:07:48.903Z,31.45
2022-12-17T22:10:47.160Z,31.17
2022-12-17T22:13:48.331Z,30.77
2022-12-17T22:16:20.152Z,30.33
2022-12-17T22:18:48.871Z,29.02
2022-12-17T22:21:15.729Z,27.25
2022-12-17T22:23:58.073Z,29.10
2022-12-17T22:26:28.835Z,29.00
2022-12-17T22:29:00.935Z,27.42
2022-12-17T22:32:04.012Z,27.83
2022-12-17T22:35:49.912Z,27.55
2022-12-17T22:40:37.381Z,27.25
2022-12-17T22:44:30.915Z,26.30
2022-12-17T22:44:37.717Z,26.83
2022-12-17T22:46:25.929Z,26.15
2022-12-17T22:49:15.397Z,27.23
2022-12-17T22:51:45.614Z,27.95
2022-12-17T22:54:13.922Z,27.10
2022-12-17T22:57:19.134Z,26.55
2022-12-17T22:59:30.507Z,26.00
2022-12-17T23:01:58.553Z,27.80
2022-12-17T23:04:26.238Z,27.00
2022-12-17T23:06:54.352Z,27.15
2022-12-17T23:09:26.521Z,27.13
2022-12-17T23:11:54.959Z,27.13
2022-12-17T23:14:23.071Z,26.23
2022-12-17T23:16:52.676Z,26.88
2022-12-17T23:19:20.143Z,26.55
2022-12-17T23:21:47.216Z,26.40
2022-12-17T23:24:15.744Z,26.30
2022-12-17T23:26:42.838Z,27.65
2022-12-17T23:29:19.437Z,25.27
2022-12-17T23:31:48.217Z,26.13
2022-12-17T23:34:18.552Z,26.10
2022-12-17T23:36:45.637Z,28.08
2022-12-17T23:39:16.034Z,25.33
2022-12-17T23:41:45.096Z,25.75
2022-12-17T23:44:13.188Z,25.55
2022-12-17T23:46:42.937Z,25.50
2022-12-17T23:49:15.606Z,25.20
2022-12-17T23:51:43.741Z,29.25
2022-12-17T23:54:11.764Z,29.48
2022-12-17T23:56:40.521Z,28.42
2022-12-17T23:59:10.469Z,31.48
